sensor_id;sensor_type;location;lat;lon;timestamp;pressure;altitude;pressure_sealevel;temperature
55077;BMP280;40971;44.702;11.030;2023-01-29T00:01:48;102350.28;;;0.12
55077;BMP280;40971;44.702;11.030;2023-01-29T00:11:49;102345.97;;;0.08
55077;BMP280;40971;44.702;11.030;2023-01-29T00:21:49;102355.47;;;0.17
55077;BMP280;40971;44.702;11.030;2023-01-29T00:31:50;102356.94;;;-0.29
55077;BMP280;40971;44.702;11.030;2023-01-29T00:41:50;102358.47;;;-0.37
55077;BMP280;40971;44.702;11.030;2023-01-29T00:52:09;102362.91;;;-0.27
55077;BMP280;40971;44.702;11.030;2023-01-29T01:02:25;102359.09;;;-0.09
55077;BMP280;40971;44.702;11.030;2023-01-29T01:12:44;102362.22;;;0.16
55077;BMP280;40971;44.702;11.030;2023-01-29T01:22:44;102370.00;;;0.24
55077;BMP280;40971;44.702;11.030;2023-01-29T01:32:45;102392.06;;;0.26
55077;BMP280;40971;44.702;11.030;2023-01-29T01:42:56;102387.44;;;0.09
55077;BMP280;40971;44.702;11.030;2023-01-29T01:53:01;102390.41;;;-0.08
55077;BMP280;40971;44.702;11.030;2023-01-29T02:03:04;102389.50;;;0.26
55077;BMP280;40971;44.702;11.030;2023-01-29T02:13:24;102395.31;;;0.21
55077;BMP280;40971;44.702;11.030;2023-01-29T02:23:47;102391.34;;;-0.05
55077;BMP280;40971;44.702;11.030;2023-01-29T02:44:19;102406.72;;;0.02
55077;BMP280;40971;44.702;11.030;2023-01-29T02:54:38;102409.13;;;-0.05
55077;BMP280;40971;44.702;11.030;2023-01-29T03:04:47;102410.22;;;-0.28
55077;BMP280;40971;44.702;11.030;2023-01-29T03:14:50;102419.47;;;-0.64
55077;BMP280;40971;44.702;11.030;2023-01-29T03:25:08;102418.97;;;-0.51
55077;BMP280;40971;44.702;11.030;2023-01-29T03:35:30;102415.47;;;-0.22
55077;BMP280;40971;44.702;11.030;2023-01-29T03:56:10;102418.59;;;-0.65
55077;BMP280;40971;44.702;11.030;2023-01-29T04:06:19;102437.53;;;-1.13
55077;BMP280;40971;44.702;11.030;2023-01-29T04:16:30;102444.31;;;-1.12
55077;BMP280;40971;44.702;11.030;2023-01-29T04:26:55;102449.84;;;-1.27
55077;BMP280;40971;44.702;11.030;2023-01-29T04:47:59;102431.06;;;-0.73
55077;BMP280;40971;44.702;11.030;2023-01-29T05:08:21;102455.19;;;-0.87
55077;BMP280;40971;44.702;11.030;2023-01-29T05:18:23;102466.78;;;-1.52
55077;BMP280;40971;44.702;11.030;2023-01-29T05:28:23;102468.28;;;-1.01
55077;BMP280;40971;44.702;11.030;2023-01-29T05:38:24;102495.50;;;-1.51
55077;BMP280;40971;44.702;11.030;2023-01-29T05:48:28;102493.66;;;-0.70
55077;BMP280;40971;44.702;11.030;2023-01-29T05:58:31;102499.22;;;-1.67
55077;BMP280;40971;44.702;11.030;2023-01-29T06:08:32;102506.53;;;-1.22
55077;BMP280;40971;44.702;11.030;2023-01-29T06:18:32;102500.09;;;-1.11
55077;BMP280;40971;44.702;11.030;2023-01-29T06:28:34;102502.03;;;-1.02
55077;BMP280;40971;44.702;11.030;2023-01-29T06:38:34;102526.28;;;-1.10
55077;BMP280;40971;44.702;11.030;2023-01-29T06:48:35;102537.84;;;-1.18
55077;BMP280;40971;44.702;11.030;2023-01-29T06:58:36;102536.34;;;-0.84
55077;BMP280;40971;44.702;11.030;2023-01-29T07:08:38;102547.00;;;-0.95
55077;BMP280;40971;44.702;11.030;2023-01-29T07:18:40;102556.28;;;-0.66
55077;BMP280;40971;44.702;11.030;2023-01-29T07:28:41;102564.94;;;-0.59
55077;BMP280;40971;44.702;11.030;2023-01-29T07:38:41;102572.97;;;0.21
55077;BMP280;40971;44.702;11.030;2023-01-29T07:48:42;102581.00;;;0.72
55077;BMP280;40971;44.702;11.030;2023-01-29T07:58:42;102577.59;;;1.50
55077;BMP280;40971;44.702;11.030;2023-01-29T08:08:42;102595.34;;;1.91
55077;BMP280;40971;44.702;11.030;2023-01-29T08:18:43;102609.88;;;1.96
55077;BMP280;40971;44.702;11.030;2023-01-29T08:28:46;102630.13;;;2.36
55077;BMP280;40971;44.702;11.030;2023-01-29T08:38:47;102647.56;;;2.64
55077;BMP280;40971;44.702;11.030;2023-01-29T08:48:47;102643.66;;;2.34
55077;BMP280;40971;44.702;11.030;2023-01-29T08:58:48;102649.44;;;2.74
55077;BMP280;40971;44.702;11.030;2023-01-29T09:08:48;102646.06;;;3.32
55077;BMP280;40971;44.702;11.030;2023-01-29T09:18:49;102658.59;;;3.16
55077;BMP280;40971;44.702;11.030;2023-01-29T09:28:49;102666.94;;;3.08
55077;BMP280;40971;44.702;11.030;2023-01-29T09:38:49;102649.69;;;3.49
55077;BMP280;40971;44.702;11.030;2023-01-29T09:48:59;102646.41;;;3.59
55077;BMP280;40971;44.702;11.030;2023-01-29T09:59:00;102651.09;;;3.28
55077;BMP280;40971;44.702;11.030;2023-01-29T10:29:49;102620.66;;;4.14
55077;BMP280;40971;44.702;11.030;2023-01-29T10:39:51;102614.81;;;4.28
55077;BMP280;40971;44.702;11.030;2023-01-29T10:50:10;102603.13;;;4.57
55077;BMP280;40971;44.702;11.030;2023-01-29T11:00:20;102587.94;;;4.79
55077;BMP280;40971;44.702;11.030;2023-01-29T11:10:22;102564.25;;;5.08
55077;BMP280;40971;44.702;11.030;2023-01-29T11:20:27;102538.75;;;5.35
55077;BMP280;40971;44.702;11.030;2023-01-29T11:30:33;102523.56;;;5.78
55077;BMP280;40971;44.702;11.030;2023-01-29T11:40:38;102512.47;;;5.93
55077;BMP280;40971;44.702;11.030;2023-01-29T11:50:39;102485.09;;;6.53
55077;BMP280;40971;44.702;11.030;2023-01-29T12:00:40;102472.22;;;6.72
55077;BMP280;40971;44.702;11.030;2023-01-29T12:10:44;102436.94;;;7.22
55077;BMP280;40971;44.702;11.030;2023-01-29T12:20:54;102421.28;;;7.59
55077;BMP280;40971;44.702;11.030;2023-01-29T12:51:50;102395.41;;;8.64
55077;BMP280;40971;44.702;11.030;2023-01-29T13:01:56;102377.47;;;9.21
55077;BMP280;40971;44.702;11.030;2023-01-29T13:12:02;102369.59;;;9.30
55077;BMP280;40971;44.702;11.030;2023-01-29T13:22:15;102349.06;;;10.24
55077;BMP280;40971;44.702;11.030;2023-01-29T13:32:29;102351.03;;;10.93
55077;BMP280;40971;44.702;11.030;2023-01-29T13:42:41;102351.50;;;11.10
55077;BMP280;40971;44.702;11.030;2023-01-29T14:02:45;102347.34;;;11.05
55077;BMP280;40971;44.702;11.030;2023-01-29T14:12:48;102349.91;;;11.05
55077;BMP280;40971;44.702;11.030;2023-01-29T14:22:55;102339.63;;;11.03
55077;BMP280;40971;44.702;11.030;2023-01-29T14:32:57;102329.44;;;10.60
55077;BMP280;40971;44.702;11.030;2023-01-29T14:43:16;102337.97;;;10.62
55077;BMP280;40971;44.702;11.030;2023-01-29T14:53:26;102321.97;;;10.84
55077;BMP280;40971;44.702;11.030;2023-01-29T15:03:45;102314.06;;;10.54
55077;BMP280;40971;44.702;11.030;2023-01-29T15:14:34;102309.38;;;10.31
55077;BMP280;40971;44.702;11.030;2023-01-29T15:24:18;102295.84;;;9.75
55077;BMP280;40971;44.702;11.030;2023-01-29T15:34:18;102302.25;;;9.52
55077;BMP280;40971;44.702;11.030;2023-01-29T15:44:22;102293.09;;;9.36
55077;BMP280;40971;44.702;11.030;2023-01-29T15:54:23;102289.72;;;8.79
55077;BMP280;40971;44.702;11.030;2023-01-29T16:04:27;102296.59;;;8.09
55077;BMP280;40971;44.702;11.030;2023-01-29T16:14:30;102288.91;;;7.21
55077;BMP280;40971;44.702;11.030;2023-01-29T16:24:33;102297.88;;;6.63
55077;BMP280;40971;44.702;11.030;2023-01-29T16:34:37;102300.50;;;6.48
55077;BMP280;40971;44.702;11.030;2023-01-29T16:44:39;102324.63;;;5.63
55077;BMP280;40971;44.702;11.030;2023-01-29T16:54:43;102336.59;;;5.23
55077;BMP280;40971;44.702;11.030;2023-01-29T17:04:45;102351.94;;;5.43
55077;BMP280;40971;44.702;11.030;2023-01-29T17:24:53;102364.63;;;4.77
55077;BMP280;40971;44.702;11.030;2023-01-29T17:34:54;102346.72;;;4.71
55077;BMP280;40971;44.702;11.030;2023-01-29T17:44:54;102346.56;;;4.37
55077;BMP280;40971;44.702;11.030;2023-01-29T17:54:55;102353.16;;;3.92
55077;BMP280;40971;44.702;11.030;2023-01-29T18:04:55;102348.03;;;3.92
55077;BMP280;40971;44.702;11.030;2023-01-29T18:14:55;102343.16;;;3.16
55077;BMP280;40971;44.702;11.030;2023-01-29T18:24:56;102341.63;;;3.32
55077;BMP280;40971;44.702;11.030;2023-01-29T18:34:56;102337.34;;;3.28
55077;BMP280;40971;44.702;11.030;2023-01-29T18:44:57;102327.88;;;3.15
55077;BMP280;40971;44.702;11.030;2023-01-29T18:54:57;102340.44;;;2.25
55077;BMP280;40971;44.702;11.030;2023-01-29T19:04:58;102342.31;;;2.36
55077;BMP280;40971;44.702;11.030;2023-01-29T19:14:59;102335.31;;;2.22
55077;BMP280;40971;44.702;11.030;2023-01-29T19:25:00;102342.53;;;1.90
55077;BMP280;40971;44.702;11.030;2023-01-29T19:35:00;102352.28;;;1.64
55077;BMP280;40971;44.702;11.030;2023-01-29T19:45:01;102354.47;;;1.94
55077;BMP280;40971;44.702;11.030;2023-01-29T19:55:04;102358.63;;;1.89
55077;BMP280;40971;44.702;11.030;2023-01-29T20:05:05;102364.84;;;2.09
55077;BMP280;40971;44.702;11.030;2023-01-29T20:15:07;102382.22;;;1.78
55077;BMP280;40971;44.702;11.030;2023-01-29T20:25:08;102385.84;;;1.40
55077;BMP280;40971;44.702;11.030;2023-01-29T20:35:08;102378.81;;;1.29
55077;BMP280;40971;44.702;11.030;2023-01-29T20:45:09;102376.09;;;1.17
55077;BMP280;40971;44.702;11.030;2023-01-29T20:55:11;102373.94;;;1.39
55077;BMP280;40971;44.702;11.030;2023-01-29T21:05:12;102366.06;;;1.25
55077;BMP280;40971;44.702;11.030;2023-01-29T21:15:13;102365.25;;;1.27
55077;BMP280;40971;44.702;11.030;2023-01-29T21:25:13;102365.63;;;1.01
55077;BMP280;40971;44.702;11.030;2023-01-29T21:35:17;102350.63;;;0.70
55077;BMP280;40971;44.702;11.030;2023-01-29T21:45:27;102355.69;;;0.68
55077;BMP280;40971;44.702;11.030;2023-01-29T21:55:28;102357.50;;;0.75
55077;BMP280;40971;44.702;11.030;2023-01-29T22:05:28;102353.31;;;0.76
55077;BMP280;40971;44.702;11.030;2023-01-29T22:15:29;102353.25;;;0.74
55077;BMP280;40971;44.702;11.030;2023-01-29T22:25:30;102354.22;;;0.38
55077;BMP280;40971;44.702;11.030;2023-01-29T22:35:31;102353.25;;;0.32
55077;BMP280;40971;44.702;11.030;2023-01-29T22:45:32;102355.75;;;-0.08
55077;BMP280;40971;44.702;11.030;2023-01-29T22:55:32;102352.41;;;-0.07
55077;BMP280;40971;44.702;11.030;2023-01-29T23:05:33;102351.16;;;0.13
55077;BMP280;40971;44.702;11.030;2023-01-29T23:15:33;102343.81;;;-0.12
55077;BMP280;40971;44.702;11.030;2023-01-29T23:25:34;102358.41;;;-0.03
55077;BMP280;40971;44.702;11.030;2023-01-29T23:35:53;102353.63;;;-0.27
55077;BMP280;40971;44.702;11.030;2023-01-29T23:45:53;102355.00;;;-0.39
55077;BMP280;40971;44.702;11.030;2023-01-29T23:55:58;102354.81;;;-0.48
